AFR38ZG LFPG-LFBZ
Flight info
| Callsign | AFR38ZG |
|---|---|
| Flight time | 1h 17m |
| Altitude | 35000 |
| Route | AGOPA6H/08L AGOPA DCT ARKIP DCT ARMAL DCT ARTAX DCT BEBIX DCT LMG DCT UVELI DCT OSMOB DCT VAVIX DCT MAGEC |
| Aircraft | A319/M-SDE3FGHIRWY/LB1 |
Departure
| Time | 2026-04-25 19:53 |
|---|---|
| Airport | Charles de Gaulle International Airport (LFPG) |
Arrival
| Time | 2026-04-25 21:10 |
|---|---|
| Airport | Biarritz Pays Basque airport (LFBZ) |
| Time | Latitude | Longitude | Altitude | Speed | Heading |
|---|---|---|---|---|---|
| 2026-04-25 19:17 | 49.00742 | 2.57915 | 347 ft | 0 kts | 184° |
| 2026-04-25 19:31 | 49.00745 | 2.57915 | 347 ft | 2 kts | 184° |
| 2026-04-25 19:32 | 49.00760 | 2.57917 | 347 ft | 2 kts | 183° |
| 2026-04-25 19:32 | 49.00774 | 2.57918 | 347 ft | 2 kts | 201° |
| 2026-04-25 19:32 | 49.00786 | 2.57932 | 347 ft | 2 kts | 239° |
| 2026-04-25 19:32 | 49.00789 | 2.57944 | 347 ft | 0 kts | 261° |
| 2026-04-25 19:33 | 49.00790 | 2.57957 | 346 ft | 0 kts | 266° |
| 2026-04-25 19:36 | 49.00789 | 2.57946 | 347 ft | 2 kts | 267° |
| 2026-04-25 19:36 | 49.00787 | 2.57907 | 347 ft | 4 kts | 265° |
| 2026-04-25 19:37 | 49.00785 | 2.57869 | 348 ft | 3 kts | 265° |
| 2026-04-25 19:37 | 49.00783 | 2.57838 | 349 ft | 2 kts | 265° |
| 2026-04-25 19:37 | 49.00783 | 2.57837 | 349 ft | 0 kts | 265° |
| 2026-04-25 19:38 | 49.00783 | 2.57836 | 349 ft | 0 kts | 265° |
| 2026-04-25 19:38 | 49.00783 | 2.57831 | 349 ft | 1 kts | 265° |
| 2026-04-25 19:38 | 49.00780 | 2.57773 | 349 ft | 10 kts | 266° |
| 2026-04-25 19:38 | 49.00773 | 2.57621 | 350 ft | 17 kts | 265° |
| 2026-04-25 19:39 | 49.00763 | 2.57448 | 353 ft | 15 kts | 265° |
| 2026-04-25 19:39 | 49.00758 | 2.57352 | 355 ft | 6 kts | 265° |
| 2026-04-25 19:39 | 49.00753 | 2.57272 | 358 ft | 4 kts | 268° |
| 2026-04-25 19:39 | 49.00753 | 2.57268 | 358 ft | 0 kts | 270° |
| 2026-04-25 19:40 | 49.00753 | 2.57271 | 358 ft | 0 kts | 269° |
| 2026-04-25 19:40 | 49.00753 | 2.57267 | 358 ft | 2 kts | 272° |
| 2026-04-25 19:40 | 49.00755 | 2.57250 | 358 ft | 0 kts | 288° |
| 2026-04-25 19:41 | 49.00757 | 2.57244 | 359 ft | 1 kts | 300° |
| 2026-04-25 19:41 | 49.00783 | 2.57222 | 360 ft | 7 kts | 345° |
| 2026-04-25 19:41 | 49.00803 | 2.57215 | 360 ft | 9 kts | 349° |
| 2026-04-25 19:42 | 49.00851 | 2.57066 | 363 ft | 12 kts | 266° |
| 2026-04-25 19:42 | 49.00843 | 2.56925 | 365 ft | 15 kts | 265° |
| 2026-04-25 19:42 | 49.00835 | 2.56754 | 363 ft | 17 kts | 266° |
| 2026-04-25 19:42 | 49.00824 | 2.56556 | 360 ft | 19 kts | 265° |
| 2026-04-25 19:43 | 49.00805 | 2.56335 | 355 ft | 22 kts | 261° |
| 2026-04-25 19:43 | 49.00784 | 2.56121 | 348 ft | 21 kts | 262° |
| 2026-04-25 19:43 | 49.00761 | 2.55885 | 345 ft | 23 kts | 262° |
| 2026-04-25 19:43 | 49.00740 | 2.55643 | 341 ft | 16 kts | 264° |
| 2026-04-25 19:44 | 49.00734 | 2.55568 | 340 ft | 5 kts | 264° |
| 2026-04-25 19:44 | 49.00732 | 2.55551 | 339 ft | 1 kts | 264° |
| 2026-04-25 19:44 | 49.00732 | 2.55549 | 339 ft | 0 kts | 264° |
| 2026-04-25 19:46 | 49.00732 | 2.55548 | 339 ft | 0 kts | 264° |
| 2026-04-25 19:46 | 49.00732 | 2.55544 | 339 ft | 0 kts | 264° |
| 2026-04-25 19:47 | 49.00730 | 2.55506 | 338 ft | 9 kts | 265° |
| 2026-04-25 19:47 | 49.00722 | 2.55381 | 337 ft | 13 kts | 260° |
| 2026-04-25 19:48 | 49.00674 | 2.55260 | 336 ft | 14 kts | 211° |
| 2026-04-25 19:48 | 49.00569 | 2.55275 | 332 ft | 15 kts | 165° |
| 2026-04-25 19:48 | 49.00458 | 2.55324 | 330 ft | 17 kts | 165° |
| 2026-04-25 19:48 | 49.00325 | 2.55378 | 327 ft | 20 kts | 162° |
| 2026-04-25 19:49 | 49.00186 | 2.55443 | 326 ft | 21 kts | 164° |
| 2026-04-25 19:49 | 49.00138 | 2.55464 | 325 ft | 21 kts | 164° |
| 2026-04-25 19:49 | 48.99928 | 2.55556 | 325 ft | 16 kts | 155° |
| 2026-04-25 19:49 | 48.99851 | 2.55662 | 329 ft | 14 kts | 116° |
| 2026-04-25 19:50 | 48.99795 | 2.55953 | 332 ft | 13 kts | 103° |
| 2026-04-25 19:50 | 48.99750 | 2.56029 | 333 ft | 0 kts | 174° |
| 2026-04-25 19:50 | 48.99748 | 2.56030 | 333 ft | 1 kts | 174° |
| 2026-04-25 19:51 | 48.99736 | 2.56031 | 333 ft | 2 kts | 175° |
| 2026-04-25 19:51 | 48.99706 | 2.56035 | 333 ft | 5 kts | 176° |
| 2026-04-25 19:51 | 48.99656 | 2.56040 | 333 ft | 8 kts | 176° |
| 2026-04-25 19:51 | 48.99618 | 2.56072 | 333 ft | 9 kts | 117° |
| 2026-04-25 19:52 | 48.99615 | 2.56126 | 334 ft | 9 kts | 87° |
| 2026-04-25 19:52 | 48.99627 | 2.56354 | 336 ft | 53 kts | 85° |
| 2026-04-25 19:52 | 48.99677 | 2.57276 | 343 ft | 120 kts | 85° |
| 2026-04-25 19:52 | 48.99755 | 2.58830 | 446 ft | 164 kts | 83° |
| 2026-04-25 19:53 | 48.99842 | 2.60557 | 1096 ft | 165 kts | 82° |
| 2026-04-25 19:53 | 48.99938 | 2.62259 | 1942 ft | 159 kts | 82° |
| 2026-04-25 19:53 | 49.00031 | 2.63920 | 2506 ft | 163 kts | 83° |
| 2026-04-25 19:53 | 49.00131 | 2.65701 | 2871 ft | 180 kts | 83° |
| 2026-04-25 19:54 | 49.00240 | 2.67681 | 3257 ft | 197 kts | 84° |
| 2026-04-25 19:54 | 49.00355 | 2.69883 | 3593 ft | 219 kts | 84° |
| 2026-04-25 19:54 | 49.00479 | 2.72307 | 4065 ft | 238 kts | 84° |
| 2026-04-25 19:54 | 49.00497 | 2.72669 | 4135 ft | 240 kts | 84° |
| 2026-04-25 19:55 | 49.00627 | 2.75239 | 4654 ft | 258 kts | 84° |
| 2026-04-25 19:55 | 49.00691 | 2.76603 | 4973 ft | 263 kts | 86° |
| 2026-04-25 19:55 | 49.00452 | 2.79093 | 5634 ft | 272 kts | 113° |
| 2026-04-25 19:55 | 48.99268 | 2.81281 | 6481 ft | 278 kts | 146° |
| 2026-04-25 19:56 | 48.97456 | 2.82217 | 7325 ft | 283 kts | 177° |
| 2026-04-25 19:56 | 48.95525 | 2.81704 | 8098 ft | 286 kts | 206° |
| 2026-04-25 19:56 | 48.93997 | 2.79884 | 8864 ft | 286 kts | 233° |
| 2026-04-25 19:56 | 48.92802 | 2.77434 | 9721 ft | 290 kts | 236° |
| 2026-04-25 19:57 | 48.91616 | 2.74977 | 10467 ft | 295 kts | 235° |
| 2026-04-25 19:57 | 48.90371 | 2.72453 | 11026 ft | 308 kts | 234° |
| 2026-04-25 19:57 | 48.89021 | 2.69777 | 11434 ft | 326 kts | 234° |
| 2026-04-25 19:57 | 48.87612 | 2.67041 | 12044 ft | 335 kts | 233° |
| 2026-04-25 19:58 | 48.86175 | 2.64268 | 12853 ft | 337 kts | 233° |
| 2026-04-25 19:58 | 48.84745 | 2.61510 | 13641 ft | 338 kts | 234° |
| 2026-04-25 19:58 | 48.83289 | 2.58698 | 14388 ft | 341 kts | 234° |
| 2026-04-25 19:58 | 48.81823 | 2.55866 | 15087 ft | 344 kts | 234° |
| 2026-04-25 19:59 | 48.80350 | 2.53023 | 15783 ft | 348 kts | 234° |
| 2026-04-25 19:59 | 48.78856 | 2.50142 | 16458 ft | 351 kts | 234° |
| 2026-04-25 19:59 | 48.77346 | 2.47235 | 17116 ft | 354 kts | 234° |
| 2026-04-25 19:59 | 48.75816 | 2.44292 | 17763 ft | 357 kts | 234° |
| 2026-04-25 20:00 | 48.74243 | 2.41372 | 18388 ft | 361 kts | 230° |
| 2026-04-25 20:00 | 48.73067 | 2.39577 | 18808 ft | 364 kts | 224° |
| 2026-04-25 20:00 | 48.70372 | 2.36488 | 19635 ft | 369 kts | 214° |
| 2026-04-25 20:00 | 48.68162 | 2.34460 | 20262 ft | 372 kts | 212° |
| 2026-04-25 20:01 | 48.63700 | 2.30465 | 21445 ft | 377 kts | 212° |
| 2026-04-25 20:01 | 48.61451 | 2.28450 | 22022 ft | 379 kts | 212° |
| 2026-04-25 20:01 | 48.59182 | 2.26417 | 22580 ft | 382 kts | 212° |
| 2026-04-25 20:02 | 48.56913 | 2.24386 | 23125 ft | 384 kts | 212° |
| 2026-04-25 20:02 | 48.54619 | 2.22331 | 23663 ft | 386 kts | 212° |
| 2026-04-25 20:02 | 48.52302 | 2.20258 | 24204 ft | 389 kts | 212° |
| 2026-04-25 20:02 | 48.49961 | 2.18169 | 24722 ft | 392 kts | 212° |
| 2026-04-25 20:03 | 48.47613 | 2.16098 | 25218 ft | 394 kts | 212° |
| 2026-04-25 20:03 | 48.45235 | 2.14011 | 25707 ft | 397 kts | 212° |
| 2026-04-25 20:03 | 48.42857 | 2.11929 | 26070 ft | 399 kts | 212° |
| 2026-04-25 20:03 | 48.40443 | 2.09818 | 26127 ft | 399 kts | 212° |
| 2026-04-25 20:04 | 48.38053 | 2.07729 | 26133 ft | 399 kts | 212° |
| 2026-04-25 20:04 | 48.35670 | 2.05647 | 26137 ft | 399 kts | 212° |
| 2026-04-25 20:04 | 48.33276 | 2.03564 | 26139 ft | 400 kts | 211° |
| 2026-04-25 20:04 | 48.30685 | 2.01890 | 26157 ft | 413 kts | 199° |
| 2026-04-25 20:05 | 48.27923 | 2.00731 | 26522 ft | 418 kts | 196° |
| 2026-04-25 20:05 | 48.25085 | 1.99644 | 27020 ft | 420 kts | 196° |
| 2026-04-25 20:05 | 48.22272 | 1.98555 | 27480 ft | 422 kts | 196° |
| 2026-04-25 20:05 | 48.19439 | 1.97431 | 27919 ft | 425 kts | 197° |
| 2026-04-25 20:06 | 48.16553 | 1.96262 | 28365 ft | 427 kts | 197° |
| 2026-04-25 20:06 | 48.13704 | 1.95094 | 28792 ft | 430 kts | 197° |
| 2026-04-25 20:06 | 48.10838 | 1.93910 | 29095 ft | 432 kts | 197° |
| 2026-04-25 20:06 | 48.07942 | 1.92710 | 29121 ft | 432 kts | 197° |
| 2026-04-25 20:07 | 48.02149 | 1.90305 | 29132 ft | 431 kts | 197° |
| 2026-04-25 20:07 | 47.96412 | 1.87923 | 29160 ft | 433 kts | 197° |
| 2026-04-25 20:08 | 47.93471 | 1.86702 | 29521 ft | 437 kts | 197° |
| 2026-04-25 20:08 | 47.90564 | 1.85498 | 30037 ft | 437 kts | 197° |
| 2026-04-25 20:08 | 47.87636 | 1.84289 | 30619 ft | 435 kts | 197° |
| 2026-04-25 20:08 | 47.84757 | 1.83107 | 31231 ft | 432 kts | 197° |
| 2026-04-25 20:09 | 47.81884 | 1.81927 | 31814 ft | 430 kts | 197° |
| 2026-04-25 20:09 | 47.79005 | 1.80744 | 32372 ft | 429 kts | 197° |
| 2026-04-25 20:09 | 47.76151 | 1.79571 | 32910 ft | 427 kts | 197° |
| 2026-04-25 20:09 | 47.73281 | 1.78392 | 33433 ft | 426 kts | 197° |
| 2026-04-25 20:10 | 47.70447 | 1.77228 | 33897 ft | 425 kts | 197° |
| 2026-04-25 20:10 | 47.67623 | 1.76068 | 34285 ft | 426 kts | 197° |
| 2026-04-25 20:10 | 47.64749 | 1.74889 | 34641 ft | 428 kts | 197° |
| 2026-04-25 20:10 | 47.61865 | 1.73708 | 34939 ft | 429 kts | 197° |
| 2026-04-25 20:11 | 47.58993 | 1.72532 | 35107 ft | 431 kts | 197° |
| 2026-04-25 20:11 | 47.56111 | 1.71354 | 35120 ft | 432 kts | 198° |
| 2026-04-25 20:11 | 47.50339 | 1.68998 | 35126 ft | 432 kts | 197° |
| 2026-04-25 20:12 | 47.44548 | 1.66639 | 35127 ft | 431 kts | 197° |
| 2026-04-25 20:12 | 47.40704 | 1.65078 | 35128 ft | 431 kts | 197° |
| 2026-04-25 20:13 | 47.33249 | 1.60995 | 35132 ft | 428 kts | 211° |
| 2026-04-25 20:13 | 47.28141 | 1.56613 | 35130 ft | 428 kts | 212° |
| 2026-04-25 20:14 | 47.23007 | 1.52227 | 35128 ft | 428 kts | 211° |
| 2026-04-25 20:14 | 47.17850 | 1.47875 | 35127 ft | 428 kts | 211° |
| 2026-04-25 20:15 | 47.12677 | 1.43538 | 35129 ft | 428 kts | 211° |
| 2026-04-25 20:15 | 47.07489 | 1.39205 | 35129 ft | 428 kts | 211° |
| 2026-04-25 20:16 | 47.02317 | 1.34898 | 35130 ft | 427 kts | 210° |
| 2026-04-25 20:16 | 46.97156 | 1.30587 | 35129 ft | 428 kts | 210° |
| 2026-04-25 20:17 | 46.91996 | 1.26290 | 35130 ft | 428 kts | 210° |
| 2026-04-25 20:17 | 46.86831 | 1.22023 | 35129 ft | 428 kts | 210° |
| 2026-04-25 20:18 | 46.81627 | 1.17750 | 35127 ft | 428 kts | 210° |
| 2026-04-25 20:18 | 46.76461 | 1.13508 | 35125 ft | 428 kts | 210° |
| 2026-04-25 20:19 | 46.71271 | 1.09252 | 35129 ft | 427 kts | 210° |
| 2026-04-25 20:19 | 46.66101 | 1.05019 | 35125 ft | 427 kts | 211° |
| 2026-04-25 20:20 | 46.60954 | 1.00811 | 35127 ft | 426 kts | 211° |
| 2026-04-25 20:20 | 46.55766 | 0.96578 | 35123 ft | 427 kts | 211° |
| 2026-04-25 20:21 | 46.50613 | 0.92384 | 35130 ft | 427 kts | 211° |
| 2026-04-25 20:21 | 46.45418 | 0.88164 | 35124 ft | 428 kts | 211° |
| 2026-04-25 20:22 | 46.41945 | 0.85347 | 35129 ft | 428 kts | 211° |
| 2026-04-25 20:22 | 46.35038 | 0.79761 | 35124 ft | 428 kts | 211° |
| 2026-04-25 20:23 | 46.29863 | 0.75585 | 35127 ft | 428 kts | 211° |
| 2026-04-25 20:23 | 46.24680 | 0.71411 | 35133 ft | 429 kts | 211° |
| 2026-04-25 20:24 | 46.19461 | 0.67218 | 35125 ft | 429 kts | 211° |
| 2026-04-25 20:24 | 46.14251 | 0.63042 | 35129 ft | 429 kts | 211° |
| 2026-04-25 20:25 | 46.09023 | 0.58861 | 35131 ft | 429 kts | 212° |
| 2026-04-25 20:25 | 46.03817 | 0.54706 | 35127 ft | 429 kts | 212° |
| 2026-04-25 20:26 | 45.98603 | 0.50552 | 35128 ft | 429 kts | 212° |
| 2026-04-25 20:26 | 45.93417 | 0.46428 | 35130 ft | 430 kts | 212° |
| 2026-04-25 20:27 | 45.92202 | 0.45464 | 35132 ft | 430 kts | 212° |
| 2026-04-25 20:27 | 45.89783 | 0.43543 | 35130 ft | 429 kts | 211° |
| 2026-04-25 20:28 | 45.84542 | 0.39417 | 35121 ft | 429 kts | 211° |
| 2026-04-25 20:28 | 45.79339 | 0.35325 | 35120 ft | 429 kts | 211° |
| 2026-04-25 20:29 | 45.74171 | 0.31238 | 35123 ft | 429 kts | 211° |
| 2026-04-25 20:29 | 45.68931 | 0.27095 | 35126 ft | 429 kts | 211° |
| 2026-04-25 20:30 | 45.63755 | 0.23024 | 35125 ft | 429 kts | 211° |
| 2026-04-25 20:30 | 45.58554 | 0.18949 | 35120 ft | 429 kts | 211° |
| 2026-04-25 20:31 | 45.53296 | 0.14836 | 35118 ft | 429 kts | 211° |
| 2026-04-25 20:31 | 45.48081 | 0.10768 | 35112 ft | 429 kts | 211° |
| 2026-04-25 20:32 | 45.42828 | 0.06676 | 35110 ft | 429 kts | 211° |
| 2026-04-25 20:32 | 45.37573 | 0.02595 | 35112 ft | 429 kts | 210° |
| 2026-04-25 20:33 | 45.32360 | -0.01444 | 35113 ft | 429 kts | 211° |
| 2026-04-25 20:33 | 45.27971 | -0.04839 | 35116 ft | 429 kts | 211° |
| 2026-04-25 20:34 | 45.21867 | -0.09551 | 35055 ft | 430 kts | 211° |
| 2026-04-25 20:34 | 45.19239 | -0.11576 | 34805 ft | 428 kts | 211° |
| 2026-04-25 20:34 | 45.16624 | -0.13588 | 34523 ft | 425 kts | 211° |
| 2026-04-25 20:35 | 45.14045 | -0.15571 | 34052 ft | 423 kts | 211° |
| 2026-04-25 20:35 | 45.11478 | -0.17542 | 33458 ft | 422 kts | 211° |
| 2026-04-25 20:35 | 45.08909 | -0.19513 | 32801 ft | 422 kts | 211° |
| 2026-04-25 20:35 | 45.06319 | -0.21498 | 32114 ft | 422 kts | 211° |
| 2026-04-25 20:36 | 45.03746 | -0.23469 | 31430 ft | 423 kts | 211° |
| 2026-04-25 20:36 | 45.01147 | -0.25458 | 30726 ft | 423 kts | 211° |
| 2026-04-25 20:36 | 44.98569 | -0.27428 | 30033 ft | 423 kts | 211° |
| 2026-04-25 20:36 | 44.96013 | -0.29380 | 29371 ft | 422 kts | 211° |
| 2026-04-25 20:37 | 44.93428 | -0.31350 | 28923 ft | 416 kts | 211° |
| 2026-04-25 20:37 | 44.90906 | -0.33270 | 28461 ft | 411 kts | 211° |
| 2026-04-25 20:37 | 44.88389 | -0.35180 | 27994 ft | 406 kts | 211° |
| 2026-04-25 20:37 | 44.85925 | -0.37040 | 27534 ft | 401 kts | 211° |
| 2026-04-25 20:38 | 44.83510 | -0.38865 | 27072 ft | 397 kts | 211° |
| 2026-04-25 20:38 | 44.81079 | -0.40703 | 26615 ft | 392 kts | 211° |
| 2026-04-25 20:38 | 44.78708 | -0.42497 | 26159 ft | 388 kts | 211° |
| 2026-04-25 20:38 | 44.76325 | -0.44298 | 25710 ft | 385 kts | 211° |
| 2026-04-25 20:39 | 44.74003 | -0.46054 | 25252 ft | 382 kts | 211° |
| 2026-04-25 20:39 | 44.71652 | -0.47829 | 24806 ft | 378 kts | 211° |
| 2026-04-25 20:39 | 44.69374 | -0.49550 | 24354 ft | 376 kts | 210° |
| 2026-04-25 20:39 | 44.67825 | -0.50720 | 24048 ft | 374 kts | 210° |
| 2026-04-25 20:40 | 44.64778 | -0.53016 | 23460 ft | 371 kts | 210° |
| 2026-04-25 20:40 | 44.62526 | -0.54712 | 23015 ft | 369 kts | 210° |
| 2026-04-25 20:40 | 44.60285 | -0.56398 | 22569 ft | 368 kts | 210° |
| 2026-04-25 20:40 | 44.58020 | -0.58103 | 22114 ft | 366 kts | 210° |
| 2026-04-25 20:41 | 44.55796 | -0.59774 | 21671 ft | 365 kts | 210° |
| 2026-04-25 20:41 | 44.53558 | -0.61453 | 21224 ft | 364 kts | 210° |
| 2026-04-25 20:41 | 44.51350 | -0.63110 | 20779 ft | 363 kts | 210° |
| 2026-04-25 20:41 | 44.49117 | -0.64782 | 20333 ft | 362 kts | 210° |
| 2026-04-25 20:42 | 44.46907 | -0.66444 | 19884 ft | 362 kts | 210° |
| 2026-04-25 20:42 | 44.44703 | -0.68107 | 19437 ft | 361 kts | 210° |
| 2026-04-25 20:42 | 44.42509 | -0.69756 | 18999 ft | 360 kts | 209° |
| 2026-04-25 20:42 | 44.40287 | -0.71422 | 18545 ft | 360 kts | 209° |
| 2026-04-25 20:43 | 44.38108 | -0.73051 | 18109 ft | 359 kts | 209° |
| 2026-04-25 20:43 | 44.35905 | -0.74695 | 17667 ft | 358 kts | 209° |
| 2026-04-25 20:43 | 44.33704 | -0.76335 | 17230 ft | 357 kts | 209° |
| 2026-04-25 20:43 | 44.31532 | -0.77952 | 16798 ft | 357 kts | 209° |
| 2026-04-25 20:44 | 44.29333 | -0.79587 | 16358 ft | 356 kts | 209° |
| 2026-04-25 20:44 | 44.27172 | -0.81193 | 15916 ft | 356 kts | 209° |
| 2026-04-25 20:44 | 44.24991 | -0.82811 | 15481 ft | 355 kts | 209° |
| 2026-04-25 20:44 | 44.22797 | -0.84437 | 15035 ft | 355 kts | 209° |
| 2026-04-25 20:45 | 44.20648 | -0.86030 | 14602 ft | 354 kts | 208° |
| 2026-04-25 20:45 | 44.18487 | -0.87630 | 14171 ft | 352 kts | 208° |
| 2026-04-25 20:45 | 44.16308 | -0.89241 | 13725 ft | 351 kts | 208° |
| 2026-04-25 20:45 | 44.14172 | -0.90819 | 13295 ft | 349 kts | 208° |
| 2026-04-25 20:46 | 44.12028 | -0.92401 | 12868 ft | 347 kts | 208° |
| 2026-04-25 20:46 | 44.09901 | -0.93969 | 12438 ft | 345 kts | 208° |
| 2026-04-25 20:46 | 44.07795 | -0.95521 | 12005 ft | 343 kts | 208° |
| 2026-04-25 20:46 | 44.05718 | -0.97051 | 11599 ft | 340 kts | 208° |
| 2026-04-25 20:47 | 44.03643 | -0.98578 | 11179 ft | 337 kts | 208° |
| 2026-04-25 20:47 | 44.01570 | -1.00102 | 10754 ft | 334 kts | 208° |
| 2026-04-25 20:47 | 43.99532 | -1.01600 | 10385 ft | 329 kts | 208° |
| 2026-04-25 20:47 | 43.97551 | -1.03055 | 10312 ft | 314 kts | 208° |
| 2026-04-25 20:48 | 43.95675 | -1.04431 | 10230 ft | 299 kts | 208° |
| 2026-04-25 20:48 | 43.93863 | -1.05760 | 10162 ft | 286 kts | 208° |
| 2026-04-25 20:48 | 43.92128 | -1.07030 | 9874 ft | 282 kts | 209° |
| 2026-04-25 20:48 | 43.90412 | -1.08287 | 9548 ft | 280 kts | 208° |
| 2026-04-25 20:49 | 43.88680 | -1.09551 | 9230 ft | 277 kts | 208° |
| 2026-04-25 20:49 | 43.86983 | -1.10781 | 8929 ft | 275 kts | 208° |
| 2026-04-25 20:49 | 43.85294 | -1.12006 | 8614 ft | 273 kts | 208° |
| 2026-04-25 20:49 | 43.83615 | -1.13226 | 8300 ft | 272 kts | 208° |
| 2026-04-25 20:50 | 43.81920 | -1.14461 | 8150 ft | 280 kts | 208° |
| 2026-04-25 20:50 | 43.80184 | -1.15725 | 8142 ft | 282 kts | 208° |
| 2026-04-25 20:50 | 43.78434 | -1.17000 | 8132 ft | 283 kts | 208° |
| 2026-04-25 20:50 | 43.76709 | -1.18258 | 8137 ft | 283 kts | 209° |
| 2026-04-25 20:51 | 43.74897 | -1.19410 | 8137 ft | 284 kts | 200° |
| 2026-04-25 20:51 | 43.73010 | -1.20115 | 8138 ft | 284 kts | 192° |
| 2026-04-25 20:51 | 43.71070 | -1.20605 | 8142 ft | 284 kts | 190° |
| 2026-04-25 20:51 | 43.69127 | -1.21056 | 8143 ft | 283 kts | 190° |
| 2026-04-25 20:52 | 43.67185 | -1.21507 | 8149 ft | 284 kts | 190° |
| 2026-04-25 20:52 | 43.65873 | -1.21816 | 8142 ft | 284 kts | 190° |
| 2026-04-25 20:52 | 43.63278 | -1.22436 | 8139 ft | 284 kts | 191° |
| 2026-04-25 20:52 | 43.61317 | -1.22908 | 8132 ft | 285 kts | 191° |
| 2026-04-25 20:53 | 43.59359 | -1.23377 | 8142 ft | 285 kts | 190° |
| 2026-04-25 20:53 | 43.57451 | -1.23830 | 7940 ft | 279 kts | 190° |
| 2026-04-25 20:53 | 43.55540 | -1.24283 | 7251 ft | 279 kts | 190° |
| 2026-04-25 20:53 | 43.53635 | -1.24734 | 6625 ft | 274 kts | 190° |
| 2026-04-25 20:54 | 43.51813 | -1.25160 | 6228 ft | 262 kts | 189° |
| 2026-04-25 20:54 | 43.50050 | -1.25570 | 5845 ft | 252 kts | 189° |
| 2026-04-25 20:54 | 43.48354 | -1.26012 | 5472 ft | 242 kts | 198° |
| 2026-04-25 20:54 | 43.47030 | -1.27229 | 5129 ft | 230 kts | 238° |
| 2026-04-25 20:55 | 43.46605 | -1.29222 | 4842 ft | 213 kts | 275° |
| 2026-04-25 20:55 | 43.46779 | -1.31228 | 4420 ft | 212 kts | 280° |
| 2026-04-25 20:55 | 43.46947 | -1.33320 | 3531 ft | 232 kts | 276° |
| 2026-04-25 20:55 | 43.47030 | -1.35527 | 2873 ft | 235 kts | 273° |
| 2026-04-25 20:56 | 43.47023 | -1.37784 | 2230 ft | 237 kts | 270° |
| 2026-04-25 20:56 | 43.46980 | -1.40010 | 1858 ft | 224 kts | 270° |
| 2026-04-25 20:56 | 43.46950 | -1.42041 | 1391 ft | 206 kts | 270° |
| 2026-04-25 20:56 | 43.46930 | -1.43909 | 1069 ft | 184 kts | 271° |
| 2026-04-25 20:57 | 43.46912 | -1.45531 | 988 ft | 155 kts | 270° |
| 2026-04-25 20:57 | 43.46897 | -1.46925 | 812 ft | 138 kts | 270° |
| 2026-04-25 20:57 | 43.46883 | -1.48189 | 604 ft | 129 kts | 271° |
| 2026-04-25 20:57 | 43.46868 | -1.49433 | 472 ft | 129 kts | 270° |
| 2026-04-25 20:58 | 43.46850 | -1.50660 | 303 ft | 129 kts | 270° |
| 2026-04-25 20:58 | 43.46832 | -1.51970 | 771 ft | 143 kts | 271° |
| 2026-04-25 20:58 | 43.46819 | -1.53310 | 1401 ft | 144 kts | 270° |
| 2026-04-25 20:58 | 43.46796 | -1.54743 | 1899 ft | 156 kts | 270° |
| 2026-04-25 20:59 | 43.46767 | -1.56284 | 2398 ft | 171 kts | 271° |
| 2026-04-25 20:59 | 43.46735 | -1.57996 | 2878 ft | 189 kts | 271° |
| 2026-04-25 20:59 | 43.46713 | -1.59853 | 3396 ft | 204 kts | 276° |
| 2026-04-25 20:59 | 43.47183 | -1.61747 | 3791 ft | 217 kts | 308° |
| 2026-04-25 21:00 | 43.48358 | -1.63012 | 3799 ft | 216 kts | 343° |
| 2026-04-25 21:00 | 43.48839 | -1.63183 | 3843 ft | 216 kts | 351° |
| 2026-04-25 21:00 | 43.53161 | -1.63262 | 3941 ft | 245 kts | 2° |
| 2026-04-25 21:01 | 43.54874 | -1.63197 | 3942 ft | 245 kts | 2° |
| 2026-04-25 21:01 | 43.56557 | -1.62995 | 3930 ft | 245 kts | 17° |
| 2026-04-25 21:01 | 43.57949 | -1.61680 | 3926 ft | 246 kts | 53° |
| 2026-04-25 21:01 | 43.58606 | -1.59484 | 3934 ft | 257 kts | 81° |
| 2026-04-25 21:02 | 43.58612 | -1.56984 | 3942 ft | 262 kts | 94° |
| 2026-04-25 21:02 | 43.58350 | -1.54477 | 3942 ft | 263 kts | 98° |
| 2026-04-25 21:02 | 43.58023 | -1.51980 | 3941 ft | 263 kts | 99° |
| 2026-04-25 21:02 | 43.57698 | -1.49498 | 3942 ft | 263 kts | 99° |
| 2026-04-25 21:03 | 43.57384 | -1.47010 | 3943 ft | 263 kts | 98° |
| 2026-04-25 21:03 | 43.57081 | -1.44519 | 3941 ft | 263 kts | 98° |
| 2026-04-25 21:03 | 43.56778 | -1.41999 | 3937 ft | 263 kts | 98° |
| 2026-04-25 21:03 | 43.56484 | -1.39526 | 3939 ft | 263 kts | 98° |
| 2026-04-25 21:04 | 43.56187 | -1.37028 | 3938 ft | 263 kts | 98° |
| 2026-04-25 21:04 | 43.55891 | -1.34548 | 3935 ft | 263 kts | 98° |
| 2026-04-25 21:04 | 43.55597 | -1.32085 | 3929 ft | 253 kts | 98° |
| 2026-04-25 21:04 | 43.55319 | -1.29762 | 3929 ft | 243 kts | 98° |
| 2026-04-25 21:05 | 43.54920 | -1.27496 | 3914 ft | 239 kts | 116° |
| 2026-04-25 21:05 | 43.53878 | -1.25835 | 3916 ft | 226 kts | 146° |
| 2026-04-25 21:05 | 43.52408 | -1.25066 | 3529 ft | 232 kts | 175° |
| 2026-04-25 21:05 | 43.50782 | -1.25240 | 2951 ft | 242 kts | 190° |
| 2026-04-25 21:06 | 43.49163 | -1.25752 | 2542 ft | 234 kts | 205° |
| 2026-04-25 21:06 | 43.48028 | -1.27147 | 2444 ft | 208 kts | 245° |
| 2026-04-25 21:06 | 43.47597 | -1.28900 | 2531 ft | 182 kts | 255° |
| 2026-04-25 21:06 | 43.47377 | -1.29992 | 2474 ft | 172 kts | 258° |
| 2026-04-25 21:07 | 43.47120 | -1.32162 | 2457 ft | 174 kts | 266° |
| 2026-04-25 21:07 | 43.47050 | -1.33831 | 2451 ft | 174 kts | 270° |
| 2026-04-25 21:07 | 43.47027 | -1.35513 | 2372 ft | 174 kts | 271° |
| 2026-04-25 21:07 | 43.47012 | -1.37165 | 2170 ft | 173 kts | 271° |
| 2026-04-25 21:08 | 43.46994 | -1.38797 | 1940 ft | 169 kts | 271° |
| 2026-04-25 21:08 | 43.46974 | -1.40361 | 1713 ft | 156 kts | 271° |
| 2026-04-25 21:08 | 43.46956 | -1.41780 | 1510 ft | 142 kts | 271° |
| 2026-04-25 21:08 | 43.46948 | -1.43085 | 1257 ft | 132 kts | 271° |
| 2026-04-25 21:09 | 43.46910 | -1.45586 | 945 ft | 130 kts | 270° |
| 2026-04-25 21:09 | 43.46888 | -1.46837 | 797 ft | 130 kts | 271° |
| 2026-04-25 21:09 | 43.46876 | -1.48081 | 638 ft | 130 kts | 272° |
| 2026-04-25 21:10 | 43.46869 | -1.49317 | 465 ft | 129 kts | 271° |
| 2026-04-25 21:10 | 43.46854 | -1.50559 | 298 ft | 128 kts | 271° |
| 2026-04-25 21:10 | 43.46845 | -1.51764 | 222 ft | 114 kts | 269° |
| 2026-04-25 21:10 | 43.46836 | -1.52518 | 232 ft | 45 kts | 271° |
| 2026-04-25 21:11 | 43.46831 | -1.52913 | 243 ft | 33 kts | 269° |
| 2026-04-25 21:11 | 43.46831 | -1.53097 | 244 ft | 9 kts | 285° |
| 2026-04-25 21:11 | 43.46886 | -1.53155 | 243 ft | 11 kts | 337° |
| 2026-04-25 21:11 | 43.46969 | -1.53201 | 241 ft | 14 kts | 347° |
| 2026-04-25 21:12 | 43.47043 | -1.53160 | 240 ft | 9 kts | 52° |
| 2026-04-25 21:12 | 43.47098 | -1.53122 | 239 ft | 3 kts | 18° |
| 2026-04-25 21:12 | 43.47116 | -1.53114 | 239 ft | 0 kts | 19° |